Time;durP1;ratioP1;P1;durP2;ratioP2;P2;SDS_P1;SDS_P2;PMS_P1;PMS_P2;Temp;Humidity;BMP_temperature;BMP_pressure;BME280_temperature;BME280_humidity;BME280_pressure;Samples;Min_cycle;Max_cycle;Signal;HPM_P1;HPM_P2
2023/01/06 00:02:04;;;;;;;2.88;1.00;;;;;;;12.02;100.00;100984.56;8346813;28;20042;-53
2023/01/06 00:06:06;;;;;;;3.40;0.80;;;;;;;12.04;100.00;100985.28;8324314;28;20107;-56
2023/01/06 00:10:07;;;;;;;4.97;0.95;;;;;;;12.06;100.00;100986.84;8321008;28;20034;-58
2023/01/06 00:14:07;;;;;;;2.60;0.98;;;;;;;12.15;100.00;100987.88;8322388;28;20068;-54
2023/01/06 00:18:08;;;;;;;2.35;0.95;;;;;;;12.14;100.00;100972.59;8320726;28;20132;-57
2023/01/06 00:22:09;;;;;;;2.17;0.75;;;;;;;12.21;100.00;100968.34;8322360;28;20041;-58
2023/01/06 00:26:10;;;;;;;2.72;0.70;;;;;;;12.26;100.00;100966.06;8320777;28;20120;-54
2023/01/06 00:30:11;;;;;;;5.88;0.80;;;;;;;12.29;100.00;100965.78;8317898;28;20383;-58
2023/01/06 00:34:12;;;;;;;2.75;1.00;;;;;;;12.29;100.00;100971.22;8320685;28;20092;-55
2023/01/06 00:38:14;;;;;;;2.78;0.85;;;;;;;12.27;100.00;100967.78;8322953;28;20506;-57
2023/01/06 00:42:15;;;;;;;1.80;0.85;;;;;;;12.23;100.00;100956.34;8322404;28;20402;-58
2023/01/06 00:46:17;;;;;;;3.20;1.10;;;;;;;12.29;100.00;100960.38;8324876;28;20048;-56
2023/01/06 00:50:18;;;;;;;2.47;0.90;;;;;;;12.24;100.00;100960.78;8329363;28;20065;-58
2023/01/06 00:54:19;;;;;;;5.93;1.50;;;;;;;12.24;100.00;100955.38;8328902;28;20041;-57
2023/01/06 00:58:19;;;;;;;5.93;0.98;;;;;;;12.23;100.00;100939.25;8329885;28;20036;-57
2023/01/06 01:02:20;;;;;;;5.53;1.00;;;;;;;12.29;100.00;100938.69;8328982;28;20037;-58
2023/01/06 01:06:20;;;;;;;5.93;1.48;;;;;;;12.27;100.00;100940.66;8330278;28;20033;-59
2023/01/06 01:10:21;;;;;;;5.25;1.13;;;;;;;12.30;100.00;100940.38;8329964;28;20563;-58
2023/01/06 01:14:21;;;;;;;5.18;1.20;;;;;;;12.30;100.00;100943.09;8330397;28;20029;-58
2023/01/06 01:18:22;;;;;;;4.95;1.10;;;;;;;12.28;100.00;100948.66;8330986;28;20044;-56
2023/01/06 01:22:24;;;;;;;5.88;1.35;;;;;;;12.25;100.00;100943.50;8320982;28;20476;-56
2023/01/06 01:26:24;;;;;;;4.97;1.38;;;;;;;12.26;100.00;100933.53;8297563;28;20042;-55
2023/01/06 01:30:25;;;;;;;6.95;1.30;;;;;;;12.36;100.00;100945.25;8297388;28;20038;-55
2023/01/06 01:34:26;;;;;;;4.15;1.08;;;;;;;12.38;100.00;100943.25;8306122;28;20040;-56
2023/01/06 01:38:26;;;;;;;7.13;1.33;;;;;;;12.38;100.00;100948.69;8329957;28;20116;-56
2023/01/06 01:42:27;;;;;;;7.13;0.80;;;;;;;12.34;100.00;100941.81;8329852;28;20057;-56
2023/01/06 01:46:42;;;;;;;5.35;0.90;;;;;;;12.39;100.00;100948.53;8328322;28;20038;-56
2023/01/06 01:50:48;;;;;;;3.30;0.80;;;;;;;12.38;100.00;100940.53;8296199;28;20112;-56
2023/01/06 01:54:52;;;;;;;3.67;1.00;;;;;;;12.34;100.00;100941.81;8325828;28;20045;-56
2023/01/06 01:59:01;;;;;;;3.00;1.00;;;;;;;12.29;100.00;100949.53;8328638;28;20045;-56
2023/01/06 02:03:03;;;;;;;4.97;1.13;;;;;;;12.30;100.00;100938.53;8328903;28;20120;-56
2023/01/06 02:07:05;;;;;;;5.10;1.30;;;;;;;12.26;100.00;100939.78;8328711;28;20041;-52
2023/01/06 02:11:06;;;;;;;6.63;1.40;;;;;;;12.25;100.00;100937.22;8328375;28;20041;-55
2023/01/06 02:15:30;;;;;;;7.82;1.42;;;;;;;12.25;100.00;100937.22;8325477;28;20045;-55
2023/01/06 02:20:10;;;;;;;6.05;0.70;;;;;;;12.25;100.00;100931.81;8328886;28;20529;-55
2023/01/06 02:24:50;;;;;;;4.18;0.95;;;;;;;12.29;100.00;100922.41;8340996;28;20116;-56
2023/01/06 02:29:22;;;;;;;2.53;0.70;;;;;;;12.29;100.00;100919.69;8328638;28;20042;-55
2023/01/06 02:33:30;;;;;;;2.53;0.70;;;;;;;12.25;100.00;100916.41;8326697;28;20037;-56
2023/01/06 02:38:12;;;;;;;4.88;1.10;;;;;;;12.28;100.00;100921.53;8328099;28;20053;-55
2023/01/06 02:42:39;;;;;;;5.47;1.15;;;;;;;12.22;100.00;100911.25;8326742;28;20120;-55
2023/01/06 02:46:59;;;;;;;5.53;0.73;;;;;;;12.26;100.00;100909.97;8326684;28;20457;-56
2023/01/06 02:51:08;;;;;;;3.67;0.82;;;;;;;12.28;99.50;100902.56;8327326;28;20041;-55
2023/01/06 02:55:22;;;;;;;3.63;0.57;;;;;;;12.25;99.89;100902.84;8326424;28;20045;-55
2023/01/06 02:59:30;;;;;;;4.07;0.90;;;;;;;12.28;99.00;100899.84;8327210;28;20041;-57
2023/01/06 03:03:34;;;;;;;4.15;0.60;;;;;;;12.36;98.36;100896.44;8326887;28;20507;-54
2023/01/06 03:07:37;;;;;;;4.00;0.77;;;;;;;12.33;98.51;100880.44;8326123;28;20048;-55
2023/01/06 03:11:42;;;;;;;8.95;1.00;;;;;;;12.36;97.83;100885.59;8323974;28;20068;-53
2023/01/06 03:15:44;;;;;;;4.43;0.93;;;;;;;12.31;98.37;100877.88;8324290;28;20108;-53
2023/01/06 03:19:45;;;;;;;3.03;0.80;;;;;;;12.31;98.35;100866.16;8326692;28;20041;-53
2023/01/06 03:23:48;;;;;;;6.32;0.98;;;;;;;12.33;97.46;100872.31;8325870;28;20379;-53
2023/01/06 03:27:48;;;;;;;2.22;0.90;;;;;;;12.35;96.77;100875.75;8326807;28;20041;-53
2023/01/06 03:32:02;;;;;;;2.90;0.70;;;;;;;12.32;96.81;100876.03;8325300;28;20041;-52
2023/01/06 03:36:20;;;;;;;5.47;1.07;;;;;;;12.30;95.98;100865.34;8325119;28;20517;-53
2023/01/06 03:40:43;;;;;;;2.47;0.70;;;;;;;12.34;95.31;100874.03;8324785;28;20498;-54
2023/01/06 03:44:52;;;;;;;;;;;;;;;12.37;94.63;100868.31;8325821;28;20046;-53
2023/01/06 03:49:21;;;;;;;4.78;0.82;;;;;;;12.30;95.23;100865.34;8325862;28;19920;-50
2023/01/06 03:53:33;;;;;;;4.15;0.65;;;;;;;12.30;94.48;100859.03;8324729;28;20037;-51
2023/01/06 03:57:41;;;;;;;5.20;0.70;;;;;;;12.31;94.21;100844.47;8325515;28;20124;-54
2023/01/06 04:01:46;;;;;;;2.45;0.77;;;;;;;12.28;94.30;100829.38;8325555;28;20128;-51
2023/01/06 04:05:47;;;;;;;1.55;0.60;;;;;;;12.25;93.87;100845.06;8325491;28;20666;-52
2023/01/06 04:09:48;;;;;;;6.00;0.70;;;;;;;12.24;93.75;100840.66;8325281;28;20061;-53
2023/01/06 04:13:49;;;;;;;2.42;0.52;;;;;;;12.24;93.06;100838.81;8325113;28;20050;-49
2023/01/06 04:17:50;;;;;;;2.38;0.52;;;;;;;12.23;91.96;100844.38;8296829;28;20042;-48
2023/01/06 04:21:53;;;;;;;5.20;0.70;;;;;;;12.27;91.29;100848.50;8321396;28;20037;-52
2023/01/06 04:25:53;;;;;;;2.78;0.60;;;;;;;12.22;91.85;100848.06;8325674;28;20047;-49
2023/01/06 04:30:03;;;;;;;3.97;0.95;;;;;;;12.20;91.80;100837.34;8325341;28;20429;-51
2023/01/06 04:34:04;;;;;;;7.65;0.63;;;;;;;12.19;92.06;100823.94;8323363;28;20026;-52
2023/01/06 04:38:05;;;;;;;3.08;0.63;;;;;;;12.14;92.05;100826.25;8323629;28;20160;-58
2023/01/06 04:42:05;;;;;;;2.35;0.50;;;;;;;12.18;91.69;100817.69;8324403;28;20041;-57
2023/01/06 04:46:06;;;;;;;1.50;0.50;;;;;;;12.15;92.09;100823.41;8324617;28;20042;-58
2023/01/06 04:50:07;;;;;;;4.18;0.70;;;;;;;12.12;91.69;100817.38;8324650;28;20030;-58
2023/01/06 04:54:07;;;;;;;4.38;0.60;;;;;;;12.18;90.71;100816.81;8324771;28;20041;-59
2023/01/06 04:58:08;;;;;;;2.78;0.50;;;;;;;12.19;90.75;100813.09;8324511;28;20038;-59
2023/01/06 05:02:08;;;;;;;2.63;0.68;;;;;;;12.22;90.16;100821.81;8324019;28;20116;-57
2023/01/06 05:06:11;;;;;;;2.10;0.38;;;;;;;12.28;89.78;100806.81;8323781;28;20041;-59
2023/01/06 05:10:11;;;;;;;3.03;0.50;;;;;;;12.29;89.63;100819.41;8324605;28;20117;-58
2023/01/06 05:14:12;;;;;;;2.70;0.40;;;;;;;12.22;90.76;100819.09;8324357;28;20038;-58
2023/01/06 05:18:12;;;;;;;2.65;0.43;;;;;;;12.23;90.46;100818.09;8336932;28;20037;-59
2023/01/06 05:22:13;;;;;;;1.58;0.40;;;;;;;12.27;90.20;100810.53;8326494;28;20044;-59
2023/01/06 05:26:18;;;;;;;1.77;0.40;;;;;;;12.34;89.47;100811.66;8313466;28;20526;-59
2023/01/06 05:30:18;;;;;;;1.73;0.30;;;;;;;12.32;89.46;100809.09;8319991;28;20073;-59
2023/01/06 05:34:19;;;;;;;1.35;0.43;;;;;;;12.28;90.45;100806.81;8307945;28;20041;-59
2023/01/06 05:38:19;;;;;;;0.80;0.30;;;;;;;12.28;90.41;100806.81;8313052;28;20076;-59
2023/01/06 05:42:20;;;;;;;1.40;0.20;;;;;;;12.32;89.92;100819.09;8307454;28;20041;-60
2023/01/06 05:46:20;;;;;;;1.55;0.30;;;;;;;12.26;89.98;100825.94;8305684;28;20060;-59
2023/01/06 05:50:21;;;;;;;3.03;0.43;;;;;;;12.25;90.69;100836.94;8302867;28;20037;-59
2023/01/06 05:54:24;;;;;;;1.65;0.25;;;;;;;12.23;91.47;100836.22;8323339;28;20051;-56
2023/01/06 05:58:24;;;;;;;1.48;0.35;;;;;;;12.30;90.88;100837.34;8323674;28;20045;-57
2023/01/06 06:02:25;;;;;;;1.17;0.45;;;;;;;12.33;90.83;100820.81;8312359;28;20046;-58
2023/01/06 06:06:28;;;;;;;0.65;0.30;;;;;;;12.26;92.19;100820.50;8320882;28;20480;-58
2023/01/06 06:10:28;;;;;;;3.38;0.50;;;;;;;12.28;91.86;100820.38;8327114;28;20040;-56
2023/01/06 06:14:29;;;;;;;1.75;0.40;;;;;;;12.27;92.35;100815.97;8328978;28;20483;-58
2023/01/06 06:18:29;;;;;;;2.97;0.73;;;;;;;12.26;92.70;100819.69;8295920;28;20041;-58
2023/01/06 06:22:30;;;;;;;1.85;0.50;;;;;;;12.26;93.12;100811.56;8302918;28;20056;-52
2023/01/06 06:26:30;;;;;;;7.88;0.50;;;;;;;12.26;93.24;100823.22;8318567;28;20142;-58
2023/01/06 06:30:31;;;;;;;3.20;0.68;;;;;;;12.22;93.60;100823.66;8322145;28;20045;-58
2023/01/06 06:34:31;;;;;;;2.05;0.30;;;;;;;12.32;92.60;100819.09;8311617;28;20037;-58
2023/01/06 06:38:32;;;;;;;1.70;0.35;;;;;;;12.39;92.17;100817.50;8300832;28;20042;-57
2023/01/06 06:42:32;;;;;;;2.50;1.02;;;;;;;12.46;91.62;100822.22;8320096;28;20398;-58
2023/01/06 06:46:33;;;;;;;3.17;0.70;;;;;;;12.39;92.35;100822.94;8303801;28;20486;-58
2023/01/06 06:50:33;;;;;;;2.17;0.50;;;;;;;12.34;92.90;100822.50;8299963;28;20112;-58
2023/01/06 06:54:34;;;;;;;2.40;0.60;;;;;;;12.31;92.83;100809.25;8315711;28;20121;-56
2023/01/06 06:58:36;;;;;;;2.08;0.60;;;;;;;12.31;92.64;100801.09;8298391;28;20387;-55
2023/01/06 07:02:36;;;;;;;1.45;0.40;;;;;;;12.28;92.84;100802.25;8352414;28;20048;-58
2023/01/06 07:06:37;;;;;;;1.92;0.50;;;;;;;12.24;93.57;100797.28;8334148;28;20550;-58
2023/01/06 07:10:38;;;;;;;0.80;0.55;;;;;;;12.31;92.83;100801.09;8326617;28;20045;-59
2023/01/06 07:14:38;;;;;;;1.42;0.30;;;;;;;12.36;91.57;100793.41;8340786;28;20048;-59
2023/01/06 07:18:39;;;;;;;1.15;0.22;;;;;;;12.32;92.09;100783.88;8378940;28;20040;-56
2023/01/06 07:22:40;;;;;;;1.40;0.40;;;;;;;12.27;92.56;100778.88;8385492;28;20044;-59
2023/01/06 07:26:40;;;;;;;0.30;0.30;;;;;;;12.28;92.88;100779.72;8379813;28;20489;-58
2023/01/06 07:30:41;;;;;;;0.40;0.40;;;;;;;12.26;92.96;100776.31;8367121;28;20040;-56
2023/01/06 07:34:41;;;;;;;1.05;0.30;;;;;;;12.26;92.39;100771.72;8381415;28;20048;-56
2023/01/06 07:38:42;;;;;;;0.55;0.55;;;;;;;12.26;92.73;100779.00;8388585;28;20166;-56
2023/01/06 07:42:43;;;;;;;1.13;0.47;;;;;;;12.24;93.29;100784.59;8389516;28;20037;-59
2023/01/06 07:46:44;;;;;;;0.70;0.25;;;;;;;12.25;93.10;100783.56;8391353;28;20086;-59
2023/01/06 07:50:44;;;;;;;0.55;0.50;;;;;;;12.29;92.55;100786.88;8391800;28;20078;-59
2023/01/06 07:54:45;;;;;;;0.75;0.40;;;;;;;12.33;93.25;100801.81;8390388;28;20043;-59
2023/01/06 07:58:45;;;;;;;1.48;0.40;;;;;;;12.35;92.54;100797.13;8373240;28;20045;-55
2023/01/06 08:02:45;;;;;;;0.50;0.30;;;;;;;12.36;92.83;100794.28;8390906;28;20452;-58
2023/01/06 08:06:46;;;;;;;1.42;0.30;;;;;;;12.43;92.10;100794.53;8391691;28;20519;-58
2023/01/06 08:10:46;;;;;;;0.30;0.15;;;;;;;12.50;91.65;100801.09;8390767;28;20060;-58
2023/01/06 08:14:47;;;;;;;0.20;0.20;;;;;;;12.48;92.17;100797.66;8391394;28;20556;-59
2023/01/06 08:18:47;;;;;;;1.27;0.20;;;;;;;12.52;91.63;100816.22;8390388;28;20447;-59
2023/01/06 08:22:48;;;;;;;0.60;0.30;;;;;;;12.57;91.73;100813.06;8390232;28;20041;-59
2023/01/06 08:26:48;;;;;;;0.28;0.20;;;;;;;12.63;91.64;100823.34;8391512;28;20048;-59
2023/01/06 08:30:49;;;;;;;0.35;0.20;;;;;;;12.69;91.51;100822.75;8390790;28;20417;-59
2023/01/06 08:34:49;;;;;;;1.17;0.40;;;;;;;12.74;91.36;100825.84;8389625;28;20094;-58
2023/01/06 08:38:50;;;;;;;0.28;0.20;;;;;;;12.75;92.03;100843.88;8373316;28;20047;-59
2023/01/06 08:42:50;;;;;;;0.40;0.30;;;;;;;12.79;92.20;100840.72;8390654;28;20408;-58
2023/01/06 08:46:50;;;;;;;0.20;0.20;;;;;;;12.85;92.10;100844.69;8390610;28;20123;-59
2023/01/06 08:50:51;;;;;;;1.40;0.17;;;;;;;12.90;91.85;100847.81;8390360;28;20493;-58
2023/01/06 08:54:51;;;;;;;1.63;0.10;;;;;;;12.93;91.81;100853.78;8389672;28;20033;-58
2023/01/06 08:58:54;;;;;;;0.32;0.20;;;;;;;13.00;91.78;100848.69;8389760;28;20408;-59
2023/01/06 09:02:55;;;;;;;0.30;0.20;;;;;;;13.04;91.63;100860.94;8389695;28;20719;-58
2023/01/06 09:06:55;;;;;;;0.52;0.20;;;;;;;13.05;92.40;100846.38;8392810;28;20106;-59
2023/01/06 09:10:56;;;;;;;0.68;0.20;;;;;;;13.07;93.18;100855.22;8395974;28;20063;-59
2023/01/06 09:14:56;;;;;;;0.40;0.40;;;;;;;13.10;93.50;100844.94;8396272;28;20043;-59
2023/01/06 09:18:57;;;;;;;0.55;0.20;;;;;;;13.14;94.05;100856.31;8396557;28;20036;-58
2023/01/06 09:22:57;;;;;;;1.35;0.20;;;;;;;13.25;93.53;100867.00;8377877;28;20094;-58
2023/01/06 09:26:58;;;;;;;0.20;0.10;;;;;;;13.28;93.40;100874.84;8395789;28;20041;-52
2023/01/06 09:30:58;;;;;;;0.20;0.10;;;;;;;13.36;93.89;100883.13;8395522;28;20036;-53
2023/01/06 09:34:58;;;;;;;0.25;0.10;;;;;;;13.40;93.00;100877.25;8394810;28;20036;-54
2023/01/06 09:38:59;;;;;;;1.38;0.10;;;;;;;13.42;92.92;100885.25;8395197;28;20127;-53
2023/01/06 09:43:27;;;;;;;1.05;0.20;;;;;;;13.36;93.47;100891.28;8378074;28;20105;-52
2023/01/06 09:47:35;;;;;;;0.00;0.00;;;;;;;13.36;94.11;100883.97;8389077;28;20489;-49
2023/01/06 09:51:37;;;;;;;0.25;0.10;;;;;;;13.41;94.11;100884.38;8392554;28;20036;-53
2023/01/06 09:55:42;;;;;;;0.52;0.20;;;;;;;13.47;94.01;100880.19;8406451;28;20167;-54
2023/01/06 09:59:51;;;;;;;1.48;0.17;;;;;;;13.56;93.79;100888.31;8394534;28;20040;-51
2023/01/06 10:03:51;;;;;;;0.80;0.20;;;;;;;13.39;95.38;100885.53;8393882;28;20052;-51
2023/01/06 10:08:02;;;;;;;0.20;0.10;;;;;;;13.46;95.59;100886.66;8394877;28;20040;-50
2023/01/06 10:12:21;;;;;;;0.52;0.15;;;;;;;13.71;94.08;100899.53;8393876;28;20455;-57
2023/01/06 10:16:42;;;;;;;0.90;0.13;;;;;;;13.46;95.23;100908.38;8394096;28;20033;-57
2023/01/06 10:20:56;;;;;;;0.25;0.20;;;;;;;13.13;100.00;100914.34;8394455;28;20040;-57
2023/01/06 10:25:19;;;;;;;1.65;0.25;;;;;;;12.91;100.00;100909.22;8392235;28;20052;-56
2023/01/06 10:29:20;;;;;;;0.45;0.15;;;;;;;12.97;100.00;100903.22;8390488;28;20119;-56
2023/01/06 10:33:24;;;;;;;0.75;0.20;;;;;;;13.22;100.00;100906.19;8373047;28;20397;-56
2023/01/06 10:37:33;;;;;;;0.22;0.20;;;;;;;13.38;99.95;100906.41;8390414;28;20460;-56
2023/01/06 10:41:45;;;;;;;0.20;0.20;;;;;;;13.35;100.00;100894.97;8393063;28;20064;-56
2023/01/06 10:45:47;;;;;;;0.10;0.10;;;;;;;13.27;99.57;100884.03;8393451;28;20041;-57
2023/01/06 10:49:47;;;;;;;0.20;0.20;;;;;;;13.30;98.80;100889.16;8393763;28;20039;-56
2023/01/06 10:53:48;;;;;;;0.10;0.10;;;;;;;13.52;97.74;100886.91;8392321;28;20130;-56
2023/01/06 10:57:50;;;;;;;0.45;0.20;;;;;;;13.80;96.38;100893.19;8393423;28;20036;-52
2023/01/06 11:01:53;;;;;;;0.10;0.10;;;;;;;13.71;96.10;100885.94;8392728;28;20040;-52
2023/01/06 11:06:24;;;;;;;0.93;0.30;;;;;;;13.63;96.05;100874.97;8392610;28;20041;-51
2023/01/06 11:10:50;;;;;;;0.40;0.20;;;;;;;13.45;98.04;100885.78;8361870;28;20045;-52
2023/01/06 11:14:59;;;;;;;1.95;0.20;;;;;;;13.18;100.00;100893.06;8393038;28;20067;-54
2023/01/06 11:19:03;;;;;;;0.20;0.20;;;;;;;12.99;100.00;100895.81;8392946;28;20032;-53
2023/01/06 11:23:21;;;;;;;2.25;0.38;;;;;;;12.88;100.00;100887.81;8391494;28;20297;-53
2023/01/06 11:27:22;;;;;;;0.30;0.30;;;;;;;12.81;100.00;100892.13;8374564;28;20052;-52
2023/01/06 11:31:25;;;;;;;0.88;0.20;;;;;;;12.76;100.00;100883.56;8391609;28;20040;-51
2023/01/06 11:35:32;;;;;;;1.10;0.70;;;;;;;12.72;100.00;100887.56;8391945;28;20062;-53
2023/01/06 11:39:35;;;;;;;0.68;0.30;;;;;;;12.68;100.00;100875.28;8392806;28;20501;-53
2023/01/06 11:43:38;;;;;;;0.40;0.20;;;;;;;12.67;100.00;100868.16;8391344;28;20496;-52
2023/01/06 11:47:39;;;;;;;1.55;0.30;;;;;;;12.79;100.00;100865.13;8391721;28;20138;-55
2023/01/06 11:56:03;;;;;;;0.57;0.30;;;;;;;12.96;100.00;100875.22;8408417;27;20829;-52
2023/01/06 12:00:43;;;;;;;0.93;0.38;;;;;;;12.91;100.00;100876.66;8401727;27;20032;-52
2023/01/06 12:04:50;;;;;;;0.70;0.20;;;;;;;12.84;100.00;100870.13;8397922;27;20044;-52
2023/01/06 12:09:02;;;;;;;1.45;0.22;;;;;;;13.18;100.00;100868.63;8406085;27;20083;-52
2023/01/06 12:13:02;;;;;;;0.30;0.20;;;;;;;13.04;100.00;100871.78;8411250;27;20037;-55
2023/01/06 12:17:42;;;;;;;0.40;0.20;;;;;;;12.89;100.00;100868.66;8420015;28;20128;-54
2023/01/06 12:21:43;;;;;;;0.55;0.30;;;;;;;12.80;100.00;100869.53;8386121;28;20041;-50
2023/01/06 12:25:47;;;;;;;1.77;0.30;;;;;;;12.79;100.00;100870.56;8366540;28;20041;-49
2023/01/06 12:29:50;;;;;;;2.13;0.60;;;;;;;12.86;100.00;100868.09;8369578;28;20036;-51
2023/01/06 12:34:03;;;;;;;4.05;0.55;;;;;;;12.95;100.00;100867.22;8374302;28;20114;-51
2023/01/06 12:38:43;;;;;;;0.40;0.22;;;;;;;13.02;100.00;100865.69;8402535;27;20403;-51
2023/01/06 12:42:59;;;;;;;0.60;0.40;;;;;;;13.11;100.00;100872.91;8397971;28;20064;-51
2023/01/06 12:47:13;;;;;;;0.35;0.20;;;;;;;13.02;100.00;100863.81;8402573;28;20044;-52
2023/01/06 12:51:25;;;;;;;1.17;0.40;;;;;;;12.99;100.00;100866.81;8401332;28;20044;-51
2023/01/06 12:55:54;;;;;;;0.40;0.22;;;;;;;13.08;100.00;100856.91;8367609;28;20541;-52
2023/01/06 13:00:34;;;;;;;1.25;0.25;;;;;;;13.14;100.00;100872.59;8368044;28;20057;-51
2023/01/06 13:04:55;;;;;;;0.57;0.30;;;;;;;13.19;100.00;100863.03;8363668;28;20494;-53
2023/01/06 13:09:35;;;;;;;0.38;0.22;;;;;;;13.28;100.00;100872.13;8380290;28;20045;-53
2023/01/06 13:14:15;;;;;;;0.30;0.20;;;;;;;13.34;100.00;100864.25;8366833;28;20044;-53
2023/01/06 13:18:47;;;;;;;0.30;0.20;;;;;;;13.35;100.00;100859.66;8378318;28;20386;-53
2023/01/06 13:23:15;;;;;;;0.47;0.40;;;;;;;13.34;100.00;100863.41;8377450;28;20409;-53
2023/01/06 13:27:48;;;;;;;0.90;0.22;;;;;;;13.32;100.00;100858.13;8378589;28;20043;-52
2023/01/06 13:36:37;;;;;;;0.88;0.52;;;;;;;13.13;100.00;100855.50;8323581;28;20464;-53
2023/01/06 13:40:39;;;;;;;1.83;0.40;;;;;;;13.09;100.00;100853.22;8290310;28;20038;-55
2023/01/06 13:44:42;;;;;;;1.02;0.30;;;;;;;13.12;100.00;100852.94;8288064;28;20045;-55
2023/01/06 13:48:48;;;;;;;0.40;0.40;;;;;;;13.21;100.00;100852.03;8286300;28;20045;-55
2023/01/06 13:52:50;;;;;;;0.35;0.22;;;;;;;13.26;100.00;100849.69;8285801;28;20034;-55
2023/01/06 13:57:30;;;;;;;3.13;0.30;;;;;;;13.30;100.00;100856.56;8286082;28;20057;-56
2023/01/06 14:01:31;;;;;;;0.32;0.25;;;;;;;13.30;100.00;100848.41;8286516;28;20042;-55
2023/01/06 14:09:48;;;;;;;1.30;0.20;;;;;;;13.30;100.00;100843.00;8410929;27;20476;-55
2023/01/06 14:13:56;;;;;;;2.33;0.70;;;;;;;13.29;100.00;100843.97;8403281;28;20044;-55
2023/01/06 14:17:58;;;;;;;2.80;1.60;;;;;;;13.36;100.00;100850.53;8403055;28;20120;-56
2023/01/06 14:22:17;;;;;;;5.75;2.65;;;;;;;13.34;100.00;100847.97;8401545;27;20474;-55
2023/01/06 14:26:19;;;;;;;1.73;0.60;;;;;;;13.39;100.00;100855.66;8402999;27;20040;-56
2023/01/06 14:34:35;;;;;;;1.42;0.60;;;;;;;13.28;100.00;100854.00;8316845;27;20472;-56
2023/01/06 14:38:57;;;;;;;0.65;0.57;;;;;;;13.27;100.00;100851.44;8320637;28;20112;-55
2023/01/06 14:43:03;;;;;;;0.30;0.28;;;;;;;13.33;100.00;100867.13;8255494;28;20034;-55
2023/01/06 14:47:10;;;;;;;0.95;0.60;;;;;;;13.31;100.00;100858.25;8255256;28;20042;-56
2023/01/06 14:51:16;;;;;;;1.05;0.50;;;;;;;13.31;100.00;100859.13;8222387;28;20035;-55
2023/01/06 14:55:19;;;;;;;0.88;0.50;;;;;;;13.30;100.00;100856.56;8255068;28;20045;-56
2023/01/06 14:59:21;;;;;;;1.55;0.82;;;;;;;13.30;100.00;100859.28;8255242;28;20045;-55
2023/01/06 15:03:22;;;;;;;0.13;0.13;;;;;;;13.34;100.00;100863.41;8269419;28;20121;-56
2023/01/06 15:07:23;;;;;;;2.08;0.30;;;;;;;13.36;100.00;100856.81;8255060;28;20038;-55
2023/01/06 15:11:28;;;;;;;0.52;0.20;;;;;;;13.39;100.00;100847.53;8254532;28;20050;-56
2023/01/06 15:15:31;;;;;;;0.40;0.20;;;;;;;13.38;100.00;100859.38;8251783;28;20499;-53
2023/01/06 15:19:33;;;;;;;0.20;0.20;;;;;;;13.31;100.00;100858.25;8253806;28;20034;-54
2023/01/06 15:23:36;;;;;;;0.52;0.35;;;;;;;13.26;100.00;100855.13;8254468;28;20042;-56
2023/01/06 15:27:45;;;;;;;0.32;0.30;;;;;;;13.25;100.00;100848.00;8286234;28;20125;-55
2023/01/06 15:31:48;;;;;;;1.02;0.40;;;;;;;13.22;100.00;100848.31;8284973;28;20045;-55
2023/01/06 15:35:50;;;;;;;0.45;0.15;;;;;;;13.20;100.00;100855.72;8301740;28;20045;-55
2023/01/06 15:39:52;;;;;;;1.52;0.20;;;;;;;13.17;100.00;100856.88;8307506;28;20042;-55
2023/01/06 15:43:52;;;;;;;0.38;0.20;;;;;;;13.21;100.00;100846.59;8275487;28;20038;-56
2023/01/06 15:47:56;;;;;;;0.20;0.20;;;;;;;13.16;100.00;100848.91;8259536;28;20092;-55
2023/01/06 15:52:01;;;;;;;0.23;0.20;;;;;;;13.14;100.00;100857.19;8258410;28;20049;-54
2023/01/06 15:56:02;;;;;;;0.70;0.38;;;;;;;13.10;100.00;100853.06;8260866;28;20042;-54
2023/01/06 16:00:08;;;;;;;0.70;0.30;;;;;;;13.06;100.00;100858.94;8260420;28;20065;-55
2023/01/06 16:04:14;;;;;;;0.30;0.20;;;;;;;12.97;100.00;100859.78;8226090;28;20110;-56
2023/01/06 16:08:22;;;;;;;0.75;0.28;;;;;;;12.87;100.00;100869.84;8229432;28;20078;-55
2023/01/06 16:12:22;;;;;;;2.75;0.50;;;;;;;12.79;100.00;100861.56;8229367;28;20515;-56
2023/01/06 16:16:30;;;;;;;2.10;0.50;;;;;;;12.70;100.00;100857.00;8229432;28;20504;-54
2023/01/06 16:20:31;;;;;;;2.05;0.32;;;;;;;12.67;100.00;100857.28;8229439;28;20046;-55
2023/01/06 16:24:31;;;;;;;1.10;0.40;;;;;;;12.68;100.00;100859.00;8229366;28;20035;-55
2023/01/06 16:28:32;;;;;;;1.02;0.93;;;;;;;12.72;100.00;100860.44;8227582;28;20042;-54
2023/01/06 16:32:37;;;;;;;0.65;0.50;;;;;;;12.77;100.00;100860.84;8254893;28;20392;-54
2023/01/06 16:36:37;;;;;;;1.35;0.70;;;;;;;12.83;100.00;100871.09;8256549;28;20042;-55
2023/01/06 16:40:38;;;;;;;1.08;0.50;;;;;;;12.70;100.00;100863.28;8257722;28;20085;-54
2023/01/06 16:44:38;;;;;;;2.17;0.60;;;;;;;12.59;100.00;100866.16;8255555;28;20042;-55
2023/01/06 16:48:39;;;;;;;1.02;0.57;;;;;;;12.60;100.00;100867.84;8259154;28;20042;-55
2023/01/06 16:52:40;;;;;;;0.75;0.55;;;;;;;12.60;100.00;100864.31;8261512;28;20057;-55
2023/01/06 16:56:40;;;;;;;1.85;1.02;;;;;;;12.62;100.00;100865.00;8257195;28;20053;-54
2023/01/06 17:00:43;;;;;;;1.25;0.70;;;;;;;12.62;100.00;100857.72;8256491;28;20220;-54
2023/01/06 17:04:44;;;;;;;0.93;0.60;;;;;;;12.59;100.00;100851.75;8262611;28;20088;-56
2023/01/06 17:08:45;;;;;;;2.55;0.60;;;;;;;12.52;100.00;100847.91;8288264;28;20061;-54
2023/01/06 17:13:55;;;;;;;1.02;0.65;;;;;;;12.48;100.00;100857.31;8270354;28;20053;-55
2023/01/06 17:17:20;;;;;;;1.02;0.50;;;;;;;12.42;100.00;100855.19;8254706;28;20479;-56
2023/01/06 17:21:28;;;;;;;0.75;0.73;;;;;;;12.38;100.00;100864.63;8257378;28;20495;-55
2023/01/06 17:25:29;;;;;;;1.48;1.00;;;;;;;12.41;100.00;100853.50;8258040;28;20109;-53
2023/01/06 17:29:34;;;;;;;1.20;0.70;;;;;;;12.48;100.00;100862.75;8258200;28;20157;-55
2023/01/06 17:33:34;;;;;;;;;;;;;;;12.57;100.00;100867.31;8253984;28;20046;-50
2023/01/06 17:37:36;;;;;;;3.20;1.00;;;;;;;12.64;100.00;100863.88;8290026;28;19922;-54
2023/01/06 17:41:36;;;;;;;2.50;0.90;;;;;;;12.67;100.00;100858.16;8267722;28;20284;-55
2023/01/06 17:45:37;;;;;;;4.22;2.75;;;;;;;12.64;100.00;100858.44;8256288;28;20403;-57
2023/01/06 17:49:37;;;;;;;7.80;2.90;;;;;;;12.50;100.00;100855.34;8257046;28;20506;-56
2023/01/06 17:57:58;;;;;;;2.22;1.30;;;;;;;12.41;100.00;100839.94;8242047;28;20097;-54
2023/01/06 18:02:00;;;;;;;1.50;1.08;;;;;;;12.36;100.00;100839.50;8242131;28;20046;-55
2023/01/06 18:06:18;;;;;;;3.60;2.85;;;;;;;12.18;100.00;100843.94;8273638;28;20041;-56
2023/01/06 18:10:20;;;;;;;6.30;4.15;;;;;;;12.11;100.00;100853.63;8285333;28;20514;-55
2023/01/06 18:14:40;;;;;;;5.20;3.45;;;;;;;12.08;100.00;100849.38;8251415;28;20129;-56
2023/01/06 18:18:41;;;;;;;10.43;6.18;;;;;;;12.07;100.00;100860.34;8256017;28;20049;-55
2023/01/06 18:22:41;;;;;;;9.93;5.53;;;;;;;12.15;100.00;100850.50;8243912;28;20047;-55
2023/01/06 18:26:54;;;;;;;3.50;3.20;;;;;;;12.15;100.00;100860.47;8249827;28;20038;-54
2023/01/06 18:30:57;;;;;;;1.25;0.90;;;;;;;12.21;100.00;100858.06;8254513;28;20043;-56
2023/01/06 18:35:01;;;;;;;1.48;0.82;;;;;;;12.24;100.00;100855.06;8259464;28;20048;-54
2023/01/06 18:39:01;;;;;;;2.67;1.67;;;;;;;12.34;100.00;100855.03;8286793;28;20038;-56
2023/01/06 18:43:22;;;;;;;2.45;1.60;;;;;;;12.33;100.00;100858.75;8256430;28;20045;-55
2023/01/06 18:47:23;;;;;;;1.90;0.88;;;;;;;12.31;100.00;100861.63;8256092;28;20089;-56
2023/01/06 18:51:24;;;;;;;1.85;1.20;;;;;;;12.35;100.00;100856.78;8255775;28;20035;-55
2023/01/06 18:55:31;;;;;;;3.30;1.95;;;;;;;12.44;100.00;100855.91;8255531;28;20082;-55
2023/01/06 18:59:32;;;;;;;3.28;2.22;;;;;;;12.43;100.00;100865.91;8271437;28;20468;-56
2023/01/06 19:03:40;;;;;;;1.50;1.40;;;;;;;12.43;100.00;100862.31;8255903;28;20439;-56
2023/01/06 19:07:40;;;;;;;2.83;1.30;;;;;;;12.49;100.00;100859.91;8259772;28;20039;-56
2023/01/06 19:11:41;;;;;;;1.70;1.15;;;;;;;12.48;100.00;100860.03;8251292;28;20058;-55
2023/01/06 19:15:41;;;;;;;1.67;0.80;;;;;;;12.46;100.00;100859.31;8247277;28;20042;-55
2023/01/06 19:19:42;;;;;;;2.25;0.98;;;;;;;12.49;100.00;100848.19;8252924;28;20129;-55